Time;durP1;ratioP1;P1;durP2;ratioP2;P2;SDS_P1;SDS_P2;PMS_P1;PMS_P2;Temp;Humidity;BMP_temperature;BMP_pressure;BME280_temperature;BME280_humidity;BME280_pressure;Samples;Min_cycle;Max_cycle;Signal;HPM_P1;HPM_P2
2022/10/23 00:01:27;;;;;;;33.35;14.82;;;14.60;99.90;;;;;;5058227;28;20025;-73
2022/10/23 00:03:56;;;;;;;30.45;15.32;;;14.60;99.90;;;;;;5059664;28;20032;-73
2022/10/23 00:06:23;;;;;;;31.20;14.38;;;14.60;99.90;;;;;;5059664;28;20039;-73
2022/10/23 00:08:49;;;;;;;35.20;13.07;;;14.60;99.90;;;;;;5061974;28;20009;-72
2022/10/23 00:11:20;;;;;;;31.23;12.32;;;14.50;99.90;;;;;;5061441;28;20021;-73
2022/10/23 00:13:46;;;;;;;23.45;12.40;;;14.50;99.90;;;;;;5059563;28;20083;-72
2022/10/23 00:16:12;;;;;;;25.35;11.52;;;14.60;99.90;;;;;;5055953;28;128019;-72
2022/10/23 00:18:38;;;;;;;25.08;12.10;;;14.60;99.90;;;;;;5062588;28;20103;-72
2022/10/23 00:21:06;;;;;;;30.48;12.02;;;14.60;99.90;;;;;;5060805;28;20031;-72
2022/10/23 00:23:31;;;;;;;23.90;10.20;;;14.70;99.90;;;;;;5061958;28;20021;-72
2022/10/23 00:25:57;;;;;;;37.78;12.20;;;14.60;99.90;;;;;;5061123;28;20465;-72
2022/10/23 00:28:23;;;;;;;27.80;10.93;;;14.60;99.90;;;;;;5060920;28;20013;-72
2022/10/23 00:30:48;;;;;;;25.17;10.38;;;14.50;99.90;;;;;;5061221;28;20025;-72
2022/10/23 00:33:14;;;;;;;21.60;10.88;;;14.40;99.90;;;;;;5060584;28;20101;-72
2022/10/23 00:35:41;;;;;;;22.67;9.30;;;14.40;99.90;;;;;;5061208;28;20064;-72
2022/10/23 00:38:07;;;;;;;25.05;11.70;;;14.30;99.90;;;;;;5060321;28;20054;-72
2022/10/23 00:40:34;;;;;;;21.27;10.05;;;14.30;99.90;;;;;;5061437;28;20073;-72
2022/10/23 00:43:00;;;;;;;23.67;10.43;;;14.40;99.90;;;;;;5062182;28;20017;-72
2022/10/23 00:45:33;;;;;;;26.17;11.95;;;14.30;99.90;;;;;;5062066;28;20032;-73
2022/10/23 00:48:00;;;;;;;;;;;14.30;99.90;;;;;;5061338;28;20481;-72
2022/10/23 00:50:27;;;;;;;21.98;9.98;;;14.30;99.90;;;;;;5059300;28;19912;-72
2022/10/23 00:52:55;;;;;;;18.88;10.35;;;14.40;99.90;;;;;;5061716;28;20477;-72
2022/10/23 00:55:24;;;;;;;21.63;10.27;;;14.40;99.90;;;;;;5061961;28;20044;-72
2022/10/23 00:57:50;;;;;;;34.00;10.85;;;14.40;99.90;;;;;;5059790;28;20079;-72
2022/10/23 01:00:26;;;;;;;22.45;10.25;;;14.40;99.90;;;;;;5061173;28;20028;-72
2022/10/23 01:02:53;;;;;;;24.25;10.63;;;14.40;99.90;;;;;;5060064;28;20029;-72
2022/10/23 01:05:30;;;;;;;30.80;9.52;;;14.30;99.90;;;;;;5059569;28;20111;-72
2022/10/23 01:08:08;;;;;;;25.35;12.20;;;14.20;99.90;;;;;;5061533;28;20021;-71
2022/10/23 01:10:44;;;;;;;32.30;11.38;;;14.20;99.90;;;;;;5061103;28;20021;-72
2022/10/23 01:13:32;;;;;;;24.77;10.10;;;14.20;99.90;;;;;;5062597;28;20484;-71
2022/10/23 01:16:13;;;;;;;20.02;9.18;;;14.10;99.90;;;;;;5063737;28;20161;-71
2022/10/23 01:18:59;;;;;;;31.40;10.23;;;14.20;99.90;;;;;;5065558;28;20033;-71
2022/10/23 01:21:30;;;;;;;24.13;9.77;;;14.20;99.90;;;;;;5065702;28;20052;-71
2022/10/23 01:24:18;;;;;;;32.42;9.60;;;14.20;99.90;;;;;;5064083;28;20066;-71
2022/10/23 01:27:03;;;;;;;28.02;9.88;;;14.20;99.90;;;;;;5063885;28;20025;-71
2022/10/23 01:29:38;;;;;;;27.20;9.85;;;14.20;99.90;;;;;;5066284;28;20043;-71
2022/10/23 01:32:27;;;;;;;27.10;10.07;;;14.10;99.90;;;;;;5064880;28;20354;-71
2022/10/23 01:35:21;;;;;;;23.05;11.27;;;14.10;99.90;;;;;;5063229;28;20485;-71
2022/10/23 01:37:55;;;;;;;19.23;10.10;;;14.20;99.90;;;;;;5066063;28;20055;-71
2022/10/23 01:40:49;;;;;;;23.20;10.40;;;14.20;99.90;;;;;;5062273;28;20032;-71
2022/10/23 01:43:19;;;;;;;30.27;9.93;;;14.20;99.90;;;;;;5064174;28;20039;-71
2022/10/23 01:45:59;;;;;;;31.05;9.48;;;14.10;99.90;;;;;;5065483;28;20017;-71
2022/10/23 01:48:27;;;;;;;22.75;9.15;;;14.10;99.90;;;;;;5065134;28;20028;-71
2022/10/23 01:50:57;;;;;;;21.98;9.43;;;14.10;99.90;;;;;;5061144;28;20041;-71
2022/10/23 01:53:26;;;;;;;21.60;9.32;;;14.10;99.90;;;;;;5062426;28;20024;-71
2022/10/23 01:55:54;;;;;;;28.67;10.40;;;14.10;99.90;;;;;;5064956;28;20032;-71
2022/10/23 01:58:21;;;;;;;30.42;11.40;;;14.10;99.90;;;;;;5063322;28;20024;-71
2022/10/23 02:00:49;;;;;;;22.15;9.15;;;14.10;99.90;;;;;;5061796;28;20592;-71
2022/10/23 02:03:16;;;;;;;20.08;9.20;;;14.10;99.90;;;;;;5062422;28;20024;-71
2022/10/23 02:05:42;;;;;;;19.92;10.50;;;14.20;99.90;;;;;;5065124;28;20065;-71
2022/10/23 02:08:08;;;;;;;27.85;10.25;;;14.10;99.90;;;;;;5064479;28;20036;-71
2022/10/23 02:10:46;;;;;;;21.17;10.63;;;14.10;99.90;;;;;;5061351;28;20025;-71
2022/10/23 02:13:20;;;;;;;23.67;10.85;;;14.20;99.90;;;;;;5057971;28;20020;-71
2022/10/23 02:16:07;;;;;;;25.88;11.27;;;14.10;99.90;;;;;;5063098;28;20029;-71
2022/10/23 02:18:44;;;;;;;28.85;9.70;;;14.10;99.90;;;;;;5064879;28;20557;-71
2022/10/23 02:21:17;;;;;;;26.45;10.80;;;14.10;99.90;;;;;;5064625;28;20021;-71
2022/10/23 02:23:58;;;;;;;29.83;11.23;;;14.00;99.90;;;;;;5063723;28;20489;-71
2022/10/23 02:26:33;;;;;;;23.92;10.88;;;14.10;99.90;;;;;;5063568;28;20021;-71
2022/10/23 02:29:09;;;;;;;28.15;8.93;;;14.10;99.90;;;;;;5062358;28;20063;-71
2022/10/23 02:31:35;;;;;;;20.20;9.85;;;14.00;99.90;;;;;;5073427;28;20409;-71
2022/10/23 02:34:01;;;;;;;19.40;10.35;;;14.00;99.90;;;;;;5073222;28;20059;-71
2022/10/23 02:36:27;;;;;;;25.77;10.30;;;14.00;99.90;;;;;;5073461;28;20043;-71
2022/10/23 02:38:52;;;;;;;28.63;10.57;;;14.00;99.90;;;;;;5071531;28;20055;-71
2022/10/23 02:41:26;;;;;;;26.73;10.35;;;14.00;99.90;;;;;;5060599;28;20492;-71
2022/10/23 02:44:03;;;;;;;21.63;8.43;;;14.00;99.90;;;;;;5053481;28;20030;-71
2022/10/23 02:46:41;;;;;;;26.02;10.18;;;14.00;99.90;;;;;;5064914;28;20451;-71
2022/10/23 02:49:22;;;;;;;22.60;10.13;;;14.10;99.90;;;;;;5073724;28;20504;-71
2022/10/23 02:52:24;;;;;;;27.58;10.45;;;14.00;99.90;;;;;;5072357;28;20019;-71
2022/10/23 02:55:04;;;;;;;27.98;10.85;;;14.00;99.90;;;;;;5073295;28;20017;-72
2022/10/23 02:57:52;;;;;;;19.83;9.90;;;14.00;99.90;;;;;;5073092;28;20035;-71
2022/10/23 03:00:20;;;;;;;25.80;10.90;;;14.00;99.90;;;;;;5073538;28;20016;-71
2022/10/23 03:02:57;;;;;;;29.10;10.50;;;14.00;99.90;;;;;;5073353;28;20158;-71
2022/10/23 03:05:29;;;;;;;23.33;9.73;;;14.00;99.90;;;;;;5072525;28;20053;-71
2022/10/23 03:07:55;;;;;;;22.70;10.45;;;14.10;99.90;;;;;;5071973;28;20020;-71
2022/10/23 03:10:20;;;;;;;25.42;10.27;;;14.00;99.90;;;;;;5070585;28;20523;-71
2022/10/23 03:12:47;;;;;;;22.38;9.75;;;14.00;99.90;;;;;;5053207;28;20528;-71
2022/10/23 03:15:13;;;;;;;19.67;11.00;;;14.00;99.90;;;;;;5053105;28;20029;-71
2022/10/23 03:17:39;;;;;;;24.45;9.85;;;14.00;99.90;;;;;;5053058;28;20055;-71
2022/10/23 03:20:06;;;;;;;20.13;10.85;;;14.00;99.90;;;;;;5053157;28;20500;-71
2022/10/23 03:22:32;;;;;;;18.70;9.60;;;14.00;99.90;;;;;;5052692;28;20040;-71
2022/10/23 03:24:57;;;;;;;28.55;11.00;;;14.00;99.90;;;;;;5052868;28;20021;-71
2022/10/23 03:27:23;;;;;;;29.00;11.23;;;14.10;99.90;;;;;;5056728;28;20474;-71
2022/10/23 03:29:49;;;;;;;23.05;9.45;;;14.10;99.90;;;;;;5052978;28;20119;-71
2022/10/23 03:32:14;;;;;;;18.75;10.68;;;14.10;99.90;;;;;;5060596;28;20366;-71
2022/10/23 03:34:41;;;;;;;18.55;10.32;;;14.10;99.90;;;;;;5072259;28;20024;-71
2022/10/23 03:37:07;;;;;;;22.85;10.00;;;14.20;99.90;;;;;;5072020;28;20032;-71
2022/10/23 03:39:33;;;;;;;26.90;12.50;;;14.20;99.90;;;;;;5071325;28;20047;-72
2022/10/23 03:41:59;;;;;;;20.10;9.65;;;14.10;99.90;;;;;;5058679;28;20029;-71
2022/10/23 03:44:24;;;;;;;19.13;11.40;;;14.20;99.90;;;;;;5051510;28;20029;-71
2022/10/23 03:46:50;;;;;;;20.75;10.60;;;14.10;99.90;;;;;;5066330;28;20434;-71
2022/10/23 03:49:16;;;;;;;28.15;11.90;;;14.10;99.90;;;;;;5070904;28;20025;-71
2022/10/23 03:51:42;;;;;;;22.65;12.02;;;14.10;99.90;;;;;;5072367;28;20028;-71
2022/10/23 03:54:08;;;;;;;23.58;10.30;;;14.20;99.90;;;;;;5072278;28;20028;-72
2022/10/23 03:56:34;;;;;;;25.27;11.52;;;14.10;99.90;;;;;;5072483;28;20033;-71
2022/10/23 03:59:00;;;;;;;23.60;10.38;;;14.10;99.90;;;;;;5072586;28;20024;-71
2022/10/23 04:01:26;;;;;;;20.60;9.57;;;14.10;99.90;;;;;;5072596;28;20028;-71
2022/10/23 04:03:52;;;;;;;21.10;12.30;;;14.10;99.90;;;;;;5071848;28;20036;-71
2022/10/23 04:06:18;;;;;;;21.52;10.77;;;14.00;99.90;;;;;;5072189;28;20118;-72
2022/10/23 04:08:44;;;;;;;19.60;10.13;;;14.10;99.90;;;;;;5071949;28;20497;-71
2022/10/23 04:11:10;;;;;;;22.58;10.70;;;14.20;99.90;;;;;;5056060;28;20041;-71
2022/10/23 04:13:36;;;;;;;17.50;9.10;;;14.30;99.90;;;;;;5065974;28;20052;-71
2022/10/23 04:16:01;;;;;;;24.92;10.98;;;14.20;99.90;;;;;;5070623;28;20117;-71
2022/10/23 04:18:27;;;;;;;17.20;9.68;;;14.20;99.90;;;;;;5061723;28;20500;-71
2022/10/23 04:20:53;;;;;;;19.17;10.40;;;14.20;99.90;;;;;;5054469;28;20037;-71
2022/10/23 04:23:19;;;;;;;21.20;9.27;;;14.20;99.90;;;;;;5072188;28;20082;-72
2022/10/23 04:25:44;;;;;;;22.30;10.63;;;14.20;99.90;;;;;;5071977;28;20350;-71
2022/10/23 04:28:10;;;;;;;13.90;8.35;;;14.20;99.90;;;;;;5072000;28;20042;-71
2022/10/23 04:30:36;;;;;;;17.17;9.60;;;14.20;99.90;;;;;;5072180;28;20025;-71
2022/10/23 04:33:01;;;;;;;21.88;10.45;;;14.20;99.90;;;;;;5071362;28;20124;-72
2022/10/23 04:35:27;;;;;;;27.88;9.10;;;14.20;99.90;;;;;;5064704;28;20040;-71
2022/10/23 04:37:53;;;;;;;19.70;8.95;;;14.20;99.90;;;;;;5058134;28;20032;-72
2022/10/23 04:40:18;;;;;;;18.05;9.50;;;14.20;99.90;;;;;;5071862;28;20051;-71
2022/10/23 04:42:44;;;;;;;13.65;8.40;;;14.20;99.90;;;;;;5055660;28;20034;-71
2022/10/23 04:45:10;;;;;;;21.13;10.65;;;14.20;99.90;;;;;;5051986;28;20459;-71
2022/10/23 04:47:35;;;;;;;20.00;9.60;;;14.20;99.90;;;;;;5065898;28;20028;-71
2022/10/23 04:50:01;;;;;;;19.38;9.18;;;14.20;99.90;;;;;;5051963;28;20036;-71
2022/10/23 04:52:27;;;;;;;21.67;10.50;;;14.20;99.90;;;;;;5055512;28;20032;-72
2022/10/23 04:54:52;;;;;;;19.88;9.45;;;14.20;99.90;;;;;;5071003;28;20028;-71
2022/10/23 04:57:18;;;;;;;21.60;9.77;;;14.20;99.90;;;;;;5055336;28;20037;-71
2022/10/23 04:59:44;;;;;;;22.63;9.65;;;14.20;99.90;;;;;;5055072;28;20051;-71
2022/10/23 05:02:09;;;;;;;24.00;9.73;;;14.30;99.90;;;;;;5066025;28;20035;-71
2022/10/23 05:04:35;;;;;;;23.33;9.60;;;14.20;99.90;;;;;;5074734;28;20497;-71
2022/10/23 05:07:00;;;;;;;26.80;10.38;;;14.20;99.90;;;;;;5070120;28;20025;-71
2022/10/23 05:09:26;;;;;;;20.35;9.18;;;14.20;99.90;;;;;;5054953;28;20462;-74
2022/10/23 05:11:52;;;;;;;33.97;10.50;;;14.30;99.90;;;;;;5059916;28;20493;-71
2022/10/23 05:14:17;;;;;;;23.70;9.85;;;14.20;99.90;;;;;;5075395;28;20051;-71
2022/10/23 05:17:03;;;;;;;24.05;9.77;;;14.30;99.90;;;;;;5074826;28;20033;-72
2022/10/23 05:19:35;;;;;;;20.45;9.43;;;14.30;99.90;;;;;;5075376;28;20020;-71
2022/10/23 05:22:02;;;;;;;25.02;11.02;;;14.30;99.90;;;;;;5073804;28;20028;-71
2022/10/23 05:24:29;;;;;;;14.98;9.75;;;14.20;99.90;;;;;;5072667;28;20020;-71
2022/10/23 05:26:55;;;;;;;16.48;9.73;;;14.20;99.90;;;;;;5056286;28;20036;-71
2022/10/23 05:29:21;;;;;;;18.13;8.90;;;14.20;99.90;;;;;;5053847;28;20616;-71
2022/10/23 05:31:55;;;;;;;25.73;10.55;;;14.20;99.90;;;;;;5054773;28;20056;-71
2022/10/23 05:34:25;;;;;;;19.40;9.27;;;14.20;99.90;;;;;;5054950;28;20021;-71
2022/10/23 05:36:52;;;;;;;23.83;8.82;;;14.10;99.90;;;;;;5052469;28;20598;-71
2022/10/23 05:39:18;;;;;;;20.15;9.50;;;14.20;99.90;;;;;;5053642;28;20024;-71
2022/10/23 05:41:44;;;;;;;22.00;9.95;;;14.20;99.90;;;;;;5057350;28;20040;-71
2022/10/23 05:44:10;;;;;;;21.67;9.23;;;14.20;99.90;;;;;;5075061;28;20024;-71
2022/10/23 05:46:42;;;;;;;17.90;9.68;;;14.20;99.90;;;;;;5074170;28;20043;-71
2022/10/23 05:49:08;;;;;;;18.55;8.15;;;14.20;99.90;;;;;;5074877;28;20021;-71
2022/10/23 05:51:38;;;;;;;23.60;9.75;;;14.20;99.90;;;;;;5074971;28;20020;-71
2022/10/23 05:54:07;;;;;;;14.63;8.95;;;14.30;99.90;;;;;;5074268;28;20035;-71
2022/10/23 05:56:40;;;;;;;15.20;8.60;;;14.30;99.90;;;;;;5073002;28;20193;-71
2022/10/23 05:59:06;;;;;;;26.20;8.45;;;14.30;99.90;;;;;;5072393;28;20016;-70
2022/10/23 06:01:32;;;;;;;19.02;9.15;;;14.30;99.90;;;;;;5074188;28;20027;-71
2022/10/23 06:04:03;;;;;;;14.07;8.05;;;14.20;99.90;;;;;;5073364;28;20009;-71
2022/10/23 06:06:29;;;;;;;16.10;7.97;;;14.20;99.90;;;;;;5073890;28;20052;-71
2022/10/23 06:08:54;;;;;;;22.60;9.45;;;14.20;99.90;;;;;;5073527;28;20465;-71
2022/10/23 06:11:21;;;;;;;15.90;8.25;;;14.20;99.90;;;;;;5073752;28;20401;-71
2022/10/23 06:13:49;;;;;;;21.80;8.98;;;14.20;99.90;;;;;;5054770;28;20029;-71
2022/10/23 06:16:20;;;;;;;18.23;7.82;;;14.10;99.90;;;;;;5052846;28;20072;-71
2022/10/23 06:18:47;;;;;;;19.42;9.25;;;14.20;99.90;;;;;;5054551;28;20100;-71
2022/10/23 06:21:14;;;;;;;17.98;8.70;;;14.20;99.90;;;;;;5053788;28;20025;-71
2022/10/23 06:23:41;;;;;;;17.77;8.43;;;14.30;99.90;;;;;;5067470;28;20035;-71
2022/10/23 06:26:08;;;;;;;15.15;8.30;;;14.30;99.90;;;;;;5073596;28;20028;-71
2022/10/23 06:28:35;;;;;;;15.57;7.63;;;14.30;99.90;;;;;;5073839;28;20059;-71
2022/10/23 06:31:05;;;;;;;17.02;8.50;;;14.30;99.90;;;;;;5071464;28;20125;-72
2022/10/23 06:33:31;;;;;;;18.98;8.48;;;14.30;99.90;;;;;;5054340;28;20512;-71
2022/10/23 06:35:57;;;;;;;15.38;8.52;;;14.20;99.90;;;;;;5053306;28;20037;-72
2022/10/23 06:38:22;;;;;;;15.68;8.02;;;14.30;99.90;;;;;;5053046;28;20418;-71
2022/10/23 06:40:57;;;;;;;16.77;9.00;;;14.30;99.90;;;;;;5051820;28;20504;-71
2022/10/23 06:43:22;;;;;;;22.38;8.27;;;14.30;99.90;;;;;;5053661;28;20559;-71
2022/10/23 06:45:48;;;;;;;13.98;8.23;;;14.30;99.90;;;;;;5057410;28;20048;-71
2022/10/23 06:48:14;;;;;;;19.02;8.82;;;14.40;99.90;;;;;;5065565;28;20120;-72
2022/10/23 06:50:40;;;;;;;19.77;8.65;;;14.40;99.90;;;;;;5066896;28;20052;-71
2022/10/23 06:53:06;;;;;;;15.25;7.72;;;14.40;99.90;;;;;;5062558;28;20075;-73
2022/10/23 06:55:32;;;;;;;12.88;8.40;;;14.40;99.90;;;;;;5061846;28;20033;-71
2022/10/23 06:57:58;;;;;;;11.98;6.43;;;14.40;99.90;;;;;;5060910;28;20115;-71
2022/10/23 07:00:24;;;;;;;17.77;9.13;;;14.40;99.90;;;;;;5057511;28;20152;-71
2022/10/23 07:02:50;;;;;;;18.55;8.25;;;14.40;99.90;;;;;;5062179;28;20478;-71
2022/10/23 07:05:17;;;;;;;23.90;9.05;;;14.40;99.90;;;;;;5065473;28;20021;-71
2022/10/23 07:07:43;;;;;;;15.00;7.57;;;14.40;99.90;;;;;;5067404;28;20028;-71
2022/10/23 07:10:08;;;;;;;16.13;9.20;;;14.40;99.90;;;;;;5055103;28;20074;-71
2022/10/23 07:12:34;;;;;;;21.33;9.60;;;14.40;99.90;;;;;;5055766;28;20033;-71
2022/10/23 07:15:00;;;;;;;19.38;9.88;;;14.40;99.90;;;;;;5067754;28;20366;-71
2022/10/23 07:17:28;;;;;;;14.70;9.13;;;14.50;99.90;;;;;;5061196;28;20051;-71
2022/10/23 07:19:53;;;;;;;18.77;9.80;;;14.50;99.90;;;;;;5063672;28;20021;-71
2022/10/23 07:22:19;;;;;;;18.90;10.80;;;14.50;99.90;;;;;;5060489;28;20025;-71
2022/10/23 07:24:44;;;;;;;16.40;9.13;;;14.60;99.90;;;;;;5062900;28;20436;-71
2022/10/23 07:27:10;;;;;;;18.88;10.77;;;14.50;99.90;;;;;;5062787;28;20028;-71
2022/10/23 07:29:36;;;;;;;16.40;10.13;;;14.60;99.90;;;;;;5062535;28;20040;-71
2022/10/23 07:32:01;;;;;;;22.05;11.13;;;14.70;99.90;;;;;;5065482;28;20037;-71
2022/10/23 07:34:27;;;;;;;19.77;11.05;;;14.60;99.90;;;;;;5065183;28;20021;-72
2022/10/23 07:36:53;;;;;;;17.23;10.63;;;14.70;99.90;;;;;;5061889;28;20032;-71
2022/10/23 07:39:21;;;;;;;22.02;10.77;;;14.70;99.90;;;;;;5054151;28;20024;-73
2022/10/23 07:41:47;;;;;;;20.90;11.48;;;14.70;99.90;;;;;;5063377;28;20048;-71
2022/10/23 07:44:13;;;;;;;22.67;11.90;;;14.80;99.90;;;;;;5055633;28;20033;-73
2022/10/23 07:46:39;;;;;;;15.85;10.25;;;14.80;99.90;;;;;;5059736;28;20040;-69
2022/10/23 07:49:05;;;;;;;17.08;10.55;;;14.80;99.90;;;;;;5067955;28;20028;-72
2022/10/23 07:51:30;;;;;;;15.30;9.93;;;14.90;99.90;;;;;;5058172;28;20031;-69
2022/10/23 07:53:56;;;;;;;20.25;9.85;;;14.90;99.90;;;;;;5064060;28;20399;-69
2022/10/23 07:56:25;;;;;;;14.77;8.40;;;14.80;99.90;;;;;;5061665;28;20044;-70
2022/10/23 07:58:54;;;;;;;15.07;9.57;;;14.90;99.90;;;;;;5061310;28;20025;-69
2022/10/23 08:01:33;;;;;;;15.65;9.60;;;14.90;99.90;;;;;;5076542;28;20408;-69
2022/10/23 08:03:59;;;;;;;12.93;8.10;;;15.00;99.90;;;;;;5059321;28;20096;-69
2022/10/23 08:06:25;;;;;;;14.98;7.72;;;15.00;99.90;;;;;;5057864;28;20033;-69
2022/10/23 08:08:50;;;;;;;14.93;7.78;;;15.00;99.90;;;;;;5059542;28;20100;-69
2022/10/23 08:11:23;;;;;;;18.00;8.23;;;15.10;99.90;;;;;;5055901;28;20090;-69
2022/10/23 08:13:50;;;;;;;14.98;7.70;;;15.20;99.90;;;;;;5059354;28;20104;-69
2022/10/23 08:16:15;;;;;;;13.68;7.05;;;15.10;99.90;;;;;;5063458;28;20119;-69
2022/10/23 08:18:44;;;;;;;13.23;8.02;;;15.10;99.90;;;;;;5061460;28;20124;-69
2022/10/23 08:21:10;;;;;;;13.98;7.25;;;15.20;99.90;;;;;;5061227;28;20077;-69
2022/10/23 08:23:35;;;;;;;12.02;7.45;;;15.20;99.90;;;;;;5061372;28;20028;-69
2022/10/23 08:26:05;;;;;;;10.95;7.70;;;15.30;99.90;;;;;;5061181;28;20036;-69
2022/10/23 08:28:32;;;;;;;8.10;7.07;;;15.40;99.90;;;;;;5065677;28;20028;-69
2022/10/23 08:30:57;;;;;;;12.63;7.13;;;15.40;99.90;;;;;;5069643;28;20135;-70
2022/10/23 08:33:24;;;;;;;9.50;5.28;;;15.40;99.90;;;;;;5061451;28;20112;-69
2022/10/23 08:35:50;;;;;;;12.63;6.93;;;15.50;99.90;;;;;;5064088;28;20499;-69
2022/10/23 08:38:16;;;;;;;14.05;6.35;;;15.50;99.90;;;;;;5060794;28;20099;-69
2022/10/23 08:40:47;;;;;;;9.68;6.10;;;15.50;99.90;;;;;;5063022;28;20041;-70
2022/10/23 08:43:21;;;;;;;8.07;6.10;;;15.60;99.90;;;;;;5065275;28;20033;-69
2022/10/23 08:45:58;;;;;;;11.23;6.00;;;15.60;99.90;;;;;;5062171;28;20036;-69
2022/10/23 08:48:50;;;;;;;10.60;5.55;;;15.70;99.90;;;;;;5066677;28;20033;-72
2022/10/23 08:51:41;;;;;;;10.38;5.90;;;15.70;99.90;;;;;;5068181;28;20028;-70
2022/10/23 08:54:18;;;;;;;8.35;5.07;;;15.70;99.90;;;;;;5067495;28;20386;-70
2022/10/23 08:56:51;;;;;;;12.13;5.70;;;15.70;99.90;;;;;;5066453;28;20040;-69
2022/10/23 08:59:26;;;;;;;10.38;5.35;;;15.80;99.90;;;;;;5069935;28;20091;-71
2022/10/23 09:02:02;;;;;;;10.23;5.50;;;15.90;99.90;;;;;;5065356;28;20280;-70
2022/10/23 09:04:28;;;;;;;10.63;5.47;;;15.90;99.90;;;;;;5065442;28;20078;-70
2022/10/23 09:07:00;;;;;;;9.35;5.20;;;16.00;99.90;;;;;;5066546;28;20028;-71
2022/10/23 09:09:31;;;;;;;10.27;6.05;;;16.10;99.90;;;;;;5064298;28;20025;-71
2022/10/23 09:12:06;;;;;;;11.93;6.57;;;16.10;99.90;;;;;;5063678;28;20029;-71
2022/10/23 09:14:47;;;;;;;8.43;5.75;;;16.20;99.90;;;;;;5060832;28;20151;-70
2022/10/23 09:17:37;;;;;;;11.88;6.28;;;16.20;99.90;;;;;;5060787;28;20052;-70
2022/10/23 09:20:36;;;;;;;8.45;5.65;;;16.20;99.90;;;;;;5059261;28;20033;-71
2022/10/23 09:23:13;;;;;;;8.82;5.63;;;16.30;99.90;;;;;;5055581;28;20564;-71
2022/10/23 09:25:40;;;;;;;9.77;5.82;;;16.30;99.90;;;;;;5058722;28;20021;-74
2022/10/23 09:28:15;;;;;;;11.35;6.05;;;16.30;99.90;;;;;;5064146;28;20058;-73
2022/10/23 09:30:41;;;;;;;8.65;5.03;;;16.40;99.90;;;;;;5057531;28;20445;-73
2022/10/23 09:33:26;;;;;;;8.88;4.70;;;16.40;99.90;;;;;;5062158;28;20082;-73
2022/10/23 09:35:58;;;;;;;8.82;4.95;;;16.50;99.90;;;;;;5070062;28;20032;-72
2022/10/23 09:38:34;;;;;;;6.90;5.60;;;16.40;99.90;;;;;;5060697;28;20025;-72
2022/10/23 09:41:15;;;;;;;9.27;5.25;;;16.50;99.90;;;;;;5061559;28;20067;-71
2022/10/23 09:43:40;;;;;;;8.23;5.10;;;16.60;99.90;;;;;;5065658;28;20017;-71
2022/10/23 09:46:06;;;;;;;11.50;5.22;;;16.60;99.90;;;;;;5063752;28;20029;-71
2022/10/23 09:48:33;;;;;;;10.98;5.40;;;16.60;99.90;;;;;;5061002;28;20416;-72
2022/10/23 09:51:14;;;;;;;7.28;5.38;;;16.60;99.90;;;;;;5066688;28;20023;-72
2022/10/23 09:53:50;;;;;;;7.88;4.30;;;16.70;99.90;;;;;;5065113;28;20054;-72
2022/10/23 09:56:39;;;;;;;9.70;5.40;;;16.70;99.90;;;;;;5058292;28;20037;-72
2022/10/23 09:59:21;;;;;;;9.23;4.80;;;16.70;99.90;;;;;;5059682;28;20094;-72
2022/10/23 10:01:55;;;;;;;9.90;4.63;;;16.70;99.90;;;;;;5058634;28;20028;-73
2022/10/23 10:04:40;;;;;;;13.95;4.90;;;16.80;99.90;;;;;;5062926;28;20078;-72
2022/10/23 10:07:22;;;;;;;13.50;4.70;;;16.80;99.90;;;;;;5061879;28;20027;-71
2022/10/23 10:09:48;;;;;;;6.80;4.40;;;16.80;99.90;;;;;;5068673;28;20035;-72
2022/10/23 10:12:38;;;;;;;10.73;4.25;;;16.80;99.90;;;;;;5057668;28;20021;-72
2022/10/23 10:15:21;;;;;;;8.13;4.90;;;16.80;99.90;;;;;;5061016;28;20063;-71
2022/10/23 10:18:16;;;;;;;9.05;5.20;;;16.90;99.90;;;;;;5061509;28;20041;-73
2022/10/23 10:20:42;;;;;;;11.85;4.57;;;16.90;99.90;;;;;;5063690;28;20045;-71
2022/10/23 10:23:32;;;;;;;15.35;4.63;;;16.90;99.90;;;;;;5062469;28;20029;-72
2022/10/23 10:26:26;;;;;;;14.02;4.57;;;16.90;99.90;;;;;;5060942;28;20461;-72
2022/10/23 10:29:01;;;;;;;7.00;4.20;;;17.00;99.90;;;;;;5066664;28;20033;-72
2022/10/23 10:31:41;;;;;;;22.23;4.78;;;17.00;99.90;;;;;;5063285;28;20029;-72
2022/10/23 10:34:07;;;;;;;13.75;4.03;;;17.10;99.90;;;;;;5059158;28;20533;-72
2022/10/23 10:36:55;;;;;;;63.58;6.03;;;17.20;99.90;;;;;;5068164;28;20115;-72
2022/10/23 10:39:27;;;;;;;8.77;4.07;;;17.30;99.90;;;;;;5066537;28;20024;-72
2022/10/23 10:41:52;;;;;;;7.20;3.38;;;17.30;99.90;;;;;;5060918;28;20489;-72
2022/10/23 10:44:37;;;;;;;14.18;4.68;;;17.30;99.90;;;;;;5065483;28;20195;-72
2022/10/23 10:47:30;;;;;;;10.68;4.25;;;17.30;99.90;;;;;;5058967;28;20025;-72
2022/10/23 10:49:56;;;;;;;19.15;4.07;;;17.30;99.90;;;;;;5061481;28;20025;-72
2022/10/23 10:52:21;;;;;;;13.70;4.45;;;17.40;99.90;;;;;;5058966;28;20047;-72
2022/10/23 10:54:53;;;;;;;9.35;4.15;;;17.50;99.90;;;;;;5060846;28;20520;-72
2022/10/23 10:57:34;;;;;;;5.88;4.18;;;17.50;99.90;;;;;;5065564;28;20097;-72
2022/10/23 11:00:27;;;;;;;11.73;4.40;;;17.60;99.90;;;;;;5064806;28;20021;-72
2022/10/23 11:03:11;;;;;;;;;;;17.60;99.90;;;;;;5069434;28;20101;-72
2022/10/23 11:05:42;;;;;;;8.15;3.97;;;17.60;99.90;;;;;;5073982;28;19939;-72
2022/10/23 11:08:16;;;;;;;4.60;4.15;;;17.70;99.90;;;;;;5060953;28;20056;-72
2022/10/23 11:10:45;;;;;;;6.97;4.18;;;17.80;99.90;;;;;;5059402;28;20047;-73
2022/10/23 11:13:44;;;;;;;10.25;3.83;;;17.80;99.90;;;;;;5062809;28;20056;-72
2022/10/23 11:16:27;;;;;;;7.28;4.13;;;17.80;99.90;;;;;;5058677;28;20124;-72
2022/10/23 11:19:06;;;;;;;8.70;3.80;;;17.90;99.90;;;;;;5059650;28;20041;-72
2022/10/23 11:21:44;;;;;;;8.55;4.30;;;18.00;99.90;;;;;;5053781;28;20024;-72
2022/10/23 11:24:20;;;;;;;9.25;4.10;;;18.10;99.90;;;;;;5056005;28;20055;-72
2022/10/23 11:27:04;;;;;;;9.30;4.03;;;18.10;99.90;;;;;;5064884;28;20522;-72
2022/10/23 11:30:02;;;;;;;5.82;3.70;;;18.10;99.90;;;;;;5062536;28;20378;-74
2022/10/23 11:32:43;;;;;;;15.13;4.18;;;18.10;99.90;;;;;;5060732;28;20052;-72
2022/10/23 11:35:48;;;;;;;8.73;4.25;;;18.20;99.90;;;;;;5059310;28;20039;-72
2022/10/23 11:38:18;;;;;;;9.40;3.80;;;18.30;99.90;;;;;;5058796;28;20074;-72
2022/10/23 11:40:51;;;;;;;7.15;3.90;;;18.40;99.90;;;;;;5055629;28;20112;-72
2022/10/23 11:44:00;;;;;;;6.00;3.28;;;18.40;99.90;;;;;;5064777;28;20020;-71
2022/10/23 11:46:25;;;;;;;8.63;3.75;;;18.50;99.90;;;;;;5054023;28;20045;-72
2022/10/23 11:48:52;;;;;;;7.03;4.00;;;18.50;99.90;;;;;;5058502;28;20032;-72
2022/10/23 11:51:36;;;;;;;5.25;2.85;;;18.60;99.90;;;;;;5061259;28;20481;-72
2022/10/23 11:54:12;;;;;;;5.68;3.20;;;18.60;99.90;;;;;;5063273;28;20036;-71
2022/10/23 11:57:02;;;;;;;7.35;3.55;;;18.70;99.90;;;;;;5061382;28;20393;-72
2022/10/23 11:59:30;;;;;;;7.47;3.55;;;18.70;99.90;;;;;;5056754;28;20046;-70
2022/10/23 12:02:00;;;;;;;12.68;3.35;;;18.70;99.90;;;;;;5058249;28;20111;-76
2022/10/23 12:04:34;;;;;;;8.10;3.40;;;18.70;99.90;;;;;;5058640;28;20044;-72
2022/10/23 12:07:03;;;;;;;4.68;3.60;;;18.70;99.90;;;;;;5055074;28;20149;-72
2022/10/23 12:09:38;;;;;;;6.20;3.47;;;18.80;99.90;;;;;;5060835;28;20050;-72
2022/10/23 12:12:14;;;;;;;7.93;3.70;;;18.80;99.90;;;;;;5060093;28;20024;-72
2022/10/23 12:14:49;;;;;;;5.28;3.50;;;18.90;99.90;;;;;;5057255;28;20025;-73
2022/10/23 12:17:23;;;;;;;7.13;3.38;;;18.90;99.90;;;;;;5066619;28;20037;-72
2022/10/23 12:19:52;;;;;;;7.18;3.60;;;18.90;99.90;;;;;;5063150;28;20021;-72
2022/10/23 12:22:21;;;;;;;11.35;3.92;;;19.00;99.90;;;;;;5059976;28;20082;-73
2022/10/23 12:24:55;;;;;;;7.32;3.83;;;19.00;99.90;;;;;;5056189;28;20021;-73
2022/10/23 12:27:43;;;;;;;8.05;3.53;;;18.90;99.90;;;;;;5063880;28;20036;-73
2022/10/23 12:30:16;;;;;;;7.28;3.78;;;19.00;99.90;;;;;;5061953;28;20029;-73
2022/10/23 12:33:09;;;;;;;10.85;3.63;;;19.00;99.90;;;;;;5062402;28;20036;-73
2022/10/23 12:35:52;;;;;;;13.00;3.83;;;19.10;99.90;;;;;;5056084;28;20021;-73
2022/10/23 12:38:25;;;;;;;6.40;3.50;;;19.10;99.90;;;;;;5056067;28;20021;-74
2022/10/23 12:41:09;;;;;;;9.10;3.83;;;19.10;99.90;;;;;;5059820;28;20016;-72
2022/10/23 12:43:36;;;;;;;6.65;3.65;;;19.20;99.90;;;;;;5060828;28;20055;-73
2022/10/23 12:46:30;;;;;;;10.35;3.75;;;19.20;99.90;;;;;;5030803;28;20152;-72
2022/10/23 12:48:58;;;;;;;10.23;4.15;;;19.30;99.90;;;;;;5052959;28;20043;-73
2022/10/23 12:51:29;;;;;;;10.88;3.88;;;19.30;99.90;;;;;;5054522;28;20486;-73
2022/10/23 12:53:56;;;;;;;7.03;3.50;;;19.40;99.90;;;;;;5055454;28;20074;-73
2022/10/23 12:56:23;;;;;;;12.63;3.45;;;19.50;99.90;;;;;;5056135;28;20052;-72
2022/10/23 12:59:01;;;;;;;9.27;3.08;;;19.50;99.90;;;;;;5055517;28;20025;-72